Time;durP1;ratioP1;P1;durP2;ratioP2;P2;SDS_P1;SDS_P2;PMS_P1;PMS_P2;Temp;Humidity;BMP_temperature;BMP_pressure;BME280_temperature;BME280_humidity;BME280_pressure;Samples;Min_cycle;Max_cycle;Signal;HPM_P1;HPM_P2
2021/07/15 00:01:29;;;;;;;5.62;5.32;;;;;;;14.96;100.00;100633.16;4374502;32;20076;-77
2021/07/15 00:03:54;;;;;;;5.00;4.80;;;;;;;14.96;100.00;100627.06;4376083;32;20436;-77
2021/07/15 00:06:19;;;;;;;4.78;4.57;;;;;;;14.63;100.00;100594.13;4373480;32;20100;-77
2021/07/15 00:08:45;;;;;;;4.68;4.47;;;;;;;14.55;100.00;100570.03;4372461;32;20065;-77
2021/07/15 00:11:12;;;;;;;4.80;4.60;;;;;;;14.36;100.00;100549.37;4373376;32;20618;-77
2021/07/15 00:13:37;;;;;;;4.80;4.60;;;;;;;14.24;100.00;100529.97;4372400;32;20083;-77
2021/07/15 00:16:05;;;;;;;4.87;4.68;;;;;;;14.32;100.00;100534.72;4398899;32;20080;-77
2021/07/15 00:18:33;;;;;;;5.00;4.80;;;;;;;14.93;100.00;100625.47;4384024;32;20082;-77
2021/07/15 00:20:59;;;;;;;4.85;4.65;;;;;;;14.88;100.00;100624.13;4372966;32;20104;-76
2021/07/15 00:23:25;;;;;;;4.97;4.78;;;;;;;13.88;100.00;100483.25;4371668;32;20208;-77
2021/07/15 00:25:50;;;;;;;4.80;4.60;;;;;;;14.98;100.00;100656.84;4370982;32;20077;-77
2021/07/15 00:28:17;;;;;;;4.78;4.57;;;;;;;14.74;100.00;100602.16;4383506;32;20095;-77
2021/07/15 00:30:42;;;;;;;4.68;4.47;;;;;;;15.03;100.00;100636.22;4380912;32;20088;-77
2021/07/15 00:33:07;;;;;;;4.70;4.50;;;;;;;15.04;100.00;100640.56;4395111;32;20076;-78
2021/07/15 00:35:33;;;;;;;4.72;4.53;;;;;;;14.85;100.00;100624.31;4384776;32;20136;-75
2021/07/15 00:37:58;;;;;;;4.72;4.53;;;;;;;14.98;100.00;100677.16;4372282;32;20159;-75
2021/07/15 00:40:24;;;;;;;4.70;4.50;;;;;;;14.71;100.00;100601.53;4375519;32;20134;-76
2021/07/15 00:42:49;;;;;;;4.75;4.55;;;;;;;14.41;100.00;100549.88;4371969;32;20760;-77
2021/07/15 00:45:17;;;;;;;4.60;4.40;;;;;;;14.88;100.00;100639.97;4371664;32;20057;-76
2021/07/15 00:47:42;;;;;;;4.82;4.62;;;;;;;14.81;100.00;100636.91;4373361;32;20646;-76
2021/07/15 00:50:08;;;;;;;4.82;4.62;;;;;;;14.83;100.00;100644.72;4392355;32;20085;-75
2021/07/15 00:52:34;;;;;;;5.00;4.80;;;;;;;14.22;100.00;100541.59;4370503;32;20069;-75
2021/07/15 00:54:59;;;;;;;5.00;4.80;;;;;;;14.88;100.00;100658.47;4368528;32;20087;-76
2021/07/15 00:57:25;;;;;;;4.80;4.60;;;;;;;14.82;100.00;100637.75;4385968;32;20123;-76
2021/07/15 00:59:51;;;;;;;5.00;4.80;;;;;;;14.81;100.00;100639.53;4373238;32;20081;-76
2021/07/15 01:02:17;;;;;;;4.80;4.60;;;;;;;14.53;100.00;100591.28;4371969;32;20103;-77
2021/07/15 01:04:42;;;;;;;4.82;4.62;;;;;;;13.61;100.00;100433.25;4380019;32;20155;-76
2021/07/15 01:07:08;;;;;;;4.90;4.70;;;;;;;14.51;100.00;100563.28;4371855;32;20142;-77
2021/07/15 01:09:33;;;;;;;4.82;4.62;;;;;;;14.83;100.00;100629.72;4397225;32;20077;-76
2021/07/15 01:12:19;;;;;;;4.80;4.60;;;;;;;14.68;100.00;100614.97;4397746;32;20079;-76
2021/07/15 01:15:00;;;;;;;4.78;4.57;;;;;;;14.89;100.00;100652.22;4386045;32;20604;-76
2021/07/15 01:17:27;;;;;;;4.85;4.65;;;;;;;14.45;100.00;100579.56;4396457;32;20069;-76
2021/07/15 01:20:18;;;;;;;4.68;4.47;;;;;;;14.93;100.00;100653.69;4372968;32;20082;-76
2021/07/15 01:22:47;;;;;;;5.00;4.80;;;;;;;14.91;100.00;100642.38;4369318;32;20586;-76
2021/07/15 01:25:33;;;;;;;4.90;4.70;;;;;;;14.88;100.00;100642.59;4368943;32;20061;-75
2021/07/15 01:28:03;;;;;;;5.03;4.82;;;;;;;14.76;100.00;100631.94;4378123;32;20070;-76
2021/07/15 01:30:45;;;;;;;4.70;4.50;;;;;;;14.82;100.00;100645.69;4371504;32;20549;-77
2021/07/15 01:33:32;;;;;;;5.30;4.90;;;;;;;14.78;100.00;100642.41;4395333;32;20609;-76
2021/07/15 01:36:05;;;;;;;4.75;4.55;;;;;;;14.78;100.00;100633.66;4379271;32;20196;-76
2021/07/15 01:38:58;;;;;;;4.80;4.60;;;;;;;14.79;100.00;100638.81;4388105;32;20185;-76
2021/07/15 01:41:26;;;;;;;4.90;4.70;;;;;;;14.62;100.00;100626.81;4396512;32;20061;-76
2021/07/15 01:44:12;;;;;;;4.95;4.75;;;;;;;10.68;100.00;100010.59;4406695;27;20065;-76
2021/07/15 01:46:40;;;;;;;5.00;4.80;;;;;;;13.64;100.00;100494.53;4396976;32;20498;-77
2021/07/15 01:49:06;;;;;;;4.90;4.70;;;;;;;14.69;100.00;100724.94;4398205;32;20591;-77
2021/07/15 01:51:33;;;;;;;4.80;4.60;;;;;;;12.21;100.00;100340.69;4397779;32;20455;-78
2021/07/15 01:53:58;;;;;;;5.03;4.82;;;;;;;13.28;100.00;100464.41;4395076;32;20501;-77
2021/07/15 01:56:24;;;;;;;5.07;4.87;;;;;;;12.13;100.00;100248.28;4409590;32;20520;-77
2021/07/15 01:58:51;;;;;;;4.87;4.68;;;;;;;11.01;100.00;100098.66;4412507;32;20844;-77
2021/07/15 02:01:19;;;;;;;4.90;4.70;;;;;;;11.99;100.00;100236.03;4412984;32;20576;-78
2021/07/15 02:03:46;;;;;;;5.10;4.90;;;;;;;13.03;100.00;100391.47;4398279;32;20098;-77
2021/07/15 02:06:12;;;;;;;4.78;4.57;;;;;;;12.04;100.00;100248.88;4400283;32;20111;-77
2021/07/15 02:08:38;;;;;;;5.05;4.85;;;;;;;11.32;100.00;100171.06;4397915;32;20837;-77
2021/07/15 02:11:03;;;;;;;4.72;4.53;;;;;;;11.41;100.00;100129.41;4407702;32;20078;-78
2021/07/15 02:13:28;;;;;;;5.15;4.95;;;;;;;13.21;100.00;100428.03;4400223;32;20387;-77
2021/07/15 02:15:54;;;;;;;4.70;4.50;;;;;;;10.96;100.00;100046.44;4397312;32;20175;-77
2021/07/15 02:18:23;;;;;;;4.80;4.60;;;;;;;11.64;100.00;100217.25;4395161;32;20065;-77
2021/07/15 02:20:52;;;;;;;5.00;4.80;;;;;;;11.28;100.00;100095.19;4375381;32;20140;-77
2021/07/15 02:23:17;;;;;;;4.80;4.60;;;;;;;11.22;100.00;100070.16;4371888;32;20078;-76
2021/07/15 02:25:43;;;;;;;4.80;4.60;;;;;;;12.06;100.00;100283.81;4400261;32;20164;-77
2021/07/15 02:28:11;;;;;;;4.80;4.60;;;;;;;13.12;100.00;100409.25;4396059;32;20069;-77
2021/07/15 02:30:36;;;;;;;4.95;4.75;;;;;;;12.71;100.00;100388.34;4398454;32;20078;-77
2021/07/15 02:33:03;;;;;;;4.70;4.50;;;;;;;11.14;100.00;100152.06;4398984;32;20087;-77
2021/07/15 02:35:35;;;;;;;4.90;4.70;;;;;;;13.19;100.00;100441.34;4395607;32;20069;-77
2021/07/15 02:38:00;;;;;;;4.80;4.60;;;;;;;12.74;100.00;100396.03;4396069;32;20469;-78
2021/07/15 02:40:26;;;;;;;4.53;4.32;;;;;;;12.94;100.00;100432.41;4393727;32;20157;-76
2021/07/15 02:42:51;;;;;;;4.75;4.55;;;;;;;11.07;100.00;100069.38;4392775;32;20439;-76
2021/07/15 02:45:19;;;;;;;5.55;5.32;;;;;;;10.82;100.00;100087.63;4411061;32;20119;-77
2021/07/15 02:47:45;;;;;;;4.68;4.47;;;;;;;14.85;100.00;100669.22;4399563;32;20658;-77
2021/07/15 02:50:14;;;;;;;4.75;4.55;;;;;;;11.41;100.00;100095.25;4398822;32;20061;-77
2021/07/15 02:52:39;;;;;;;4.80;4.60;;;;;;;13.42;100.00;100420.50;4400414;32;20062;-77
2021/07/15 02:55:08;;;;;;;4.80;4.60;;;;;;;12.88;100.00;100340.62;4398876;32;20075;-77
2021/07/15 02:58:05;;;;;;;4.85;4.65;;;;;;;12.46;100.00;100294.34;4385502;32;20076;-78
2021/07/15 03:00:35;;;;;;;4.65;4.45;;;;;;;12.43;100.00;100297.16;4396937;32;20107;-77
2021/07/15 03:03:20;;;;;;;5.20;4.90;;;;;;;11.52;100.00;100175.03;4395581;32;20066;-78
2021/07/15 03:06:01;;;;;;;4.90;4.70;;;;;;;11.68;100.00;100155.66;4409407;32;20076;-76
2021/07/15 03:08:39;;;;;;;4.80;4.60;;;;;;;10.47;100.00;99972.63;4387224;32;20081;-77
2021/07/15 03:11:05;;;;;;;4.72;4.53;;;;;;;12.65;100.00;100326.41;4412241;32;20593;-77
2021/07/15 03:13:37;;;;;;;4.85;4.65;;;;;;;10.66;100.00;100001.97;4386047;32;20073;-77
2021/07/15 03:16:02;;;;;;;;;;;;;;;14.46;100.00;100650.75;4400111;32;20061;-77
2021/07/15 03:18:28;;;;;;;4.65;4.45;;;;;;;11.58;100.00;100221.13;4386015;32;20015;-77
2021/07/15 03:20:57;;;;;;;4.60;4.40;;;;;;;9.89;100.00;99950.84;4396956;32;20078;-78
2021/07/15 03:23:24;;;;;;;4.82;4.62;;;;;;;11.24;100.00;100225.88;4398480;27;20128;-79
2021/07/15 03:25:52;;;;;;;4.80;4.60;;;;;;;12.16;100.00;100338.34;4385428;32;20074;-77
2021/07/15 03:28:19;;;;;;;4.65;4.45;;;;;;;13.79;100.00;100666.75;4394030;32;20088;-77
2021/07/15 03:30:45;;;;;;;4.93;4.72;;;;;;;11.75;100.00;100326.03;4384527;32;20480;-77
2021/07/15 03:33:10;;;;;;;4.70;4.50;;;;;;;11.35;100.00;100222.59;4401336;32;20661;-77
2021/07/15 03:35:36;;;;;;;5.00;4.80;;;;;;;11.52;100.00;100259.12;4384302;32;20165;-77
2021/07/15 03:38:05;;;;;;;4.80;4.60;;;;;;;11.63;100.00;100321.56;4369567;32;20176;-77
2021/07/15 03:40:30;;;;;;;4.70;4.50;;;;;;;11.67;100.00;100307.28;4377326;32;20074;-77
2021/07/15 03:42:56;;;;;;;4.60;4.40;;;;;;;11.30;100.00;100271.94;4368798;32;20088;-77
2021/07/15 03:45:24;;;;;;;4.68;4.47;;;;;;;13.15;100.00;100580.34;4383313;32;20070;-77
2021/07/15 03:47:52;;;;;;;4.65;4.45;;;;;;;14.01;100.00;100649.47;4379833;32;20110;-78
2021/07/15 03:50:25;;;;;;;4.80;4.60;;;;;;;14.35;100.00;100714.87;4384959;32;20069;-77
2021/07/15 03:52:54;;;;;;;4.60;4.40;;;;;;;14.43;100.00;100732.81;4385396;32;20970;-78
2021/07/15 03:55:28;;;;;;;4.53;4.32;;;;;;;14.50;100.00;100714.78;4386055;32;20061;-78
2021/07/15 03:57:53;;;;;;;4.80;4.60;;;;;;;14.56;100.00;100732.88;4384470;32;20449;-78
2021/07/15 04:00:22;;;;;;;4.80;4.60;;;;;;;14.53;100.00;100717.19;4363245;32;20079;-77
2021/07/15 04:02:48;;;;;;;4.95;4.75;;;;;;;14.66;100.00;100751.56;4378120;32;20185;-78
2021/07/15 04:05:15;;;;;;;4.70;4.50;;;;;;;14.41;100.00;100684.53;4386380;32;20081;-77
2021/07/15 04:07:40;;;;;;;4.82;4.62;;;;;;;14.66;100.00;100723.38;4374097;32;20176;-78
2021/07/15 04:10:06;;;;;;;4.70;4.50;;;;;;;14.59;100.00;100714.16;4371374;32;20085;-77
2021/07/15 04:12:32;;;;;;;4.82;4.62;;;;;;;14.90;100.00;100749.88;4394495;32;20086;-77
2021/07/15 04:15:00;;;;;;;5.05;4.78;;;;;;;14.95;100.00;100747.78;4385633;32;20156;-78
2021/07/15 04:17:41;;;;;;;4.80;4.60;;;;;;;14.47;100.00;100684.16;4395845;32;20175;-77
2021/07/15 04:20:10;;;;;;;4.70;4.50;;;;;;;14.74;100.00;100723.66;4395992;32;20058;-76
2021/07/15 04:22:36;;;;;;;5.20;5.00;;;;;;;14.29;100.00;100628.19;4373122;32;20088;-78
2021/07/15 04:25:02;;;;;;;4.68;4.47;;;;;;;14.49;100.00;100660.25;4387287;32;20081;-78
2021/07/15 04:27:27;;;;;;;4.80;4.60;;;;;;;15.14;100.00;100760.53;4366208;32;20080;-78
2021/07/15 04:29:55;;;;;;;4.90;4.70;;;;;;;14.07;100.00;100597.13;4382321;32;20070;-78
2021/07/15 04:32:26;;;;;;;4.65;4.45;;;;;;;14.54;100.00;100663.44;4383258;32;20108;-77
2021/07/15 04:34:52;;;;;;;4.60;4.40;;;;;;;14.82;100.00;100690.59;4354025;32;20066;-78
2021/07/15 04:37:17;;;;;;;4.87;4.68;;;;;;;14.98;100.00;100691.22;4377965;32;20088;-77
2021/07/15 04:39:42;;;;;;;4.82;4.62;;;;;;;14.02;100.00;100512.16;4380429;32;20697;-78
2021/07/15 04:42:08;;;;;;;5.15;4.95;;;;;;;14.87;100.00;100633.81;4388234;32;20077;-79
2021/07/15 04:44:34;;;;;;;4.68;4.47;;;;;;;15.49;100.00;100728.06;4367006;32;20745;-76
2021/07/15 04:47:00;;;;;;;4.72;4.53;;;;;;;15.45;100.00;100704.59;4379255;32;20073;-77
2021/07/15 04:49:26;;;;;;;4.82;4.62;;;;;;;15.64;100.00;100722.66;4396971;32;20082;-79
2021/07/15 04:51:52;;;;;;;4.72;4.53;;;;;;;15.53;100.00;100679.28;4377026;32;20084;-79
2021/07/15 04:54:17;;;;;;;4.75;4.55;;;;;;;15.33;100.00;100627.00;4373370;32;20323;-79
2021/07/15 04:56:42;;;;;;;5.10;4.90;;;;;;;15.04;100.00;100577.13;4383783;32;20085;-77
2021/07/15 04:59:08;;;;;;;4.70;4.50;;;;;;;15.64;100.00;100672.38;4385328;32;20133;-77
2021/07/15 05:01:35;;;;;;;4.93;4.72;;;;;;;15.70;100.00;100677.22;4364240;32;20164;-77
2021/07/15 05:04:01;;;;;;;4.72;4.53;;;;;;;15.90;100.00;100683.69;4377326;32;20097;-77
2021/07/15 05:06:26;;;;;;;5.05;4.85;;;;;;;15.93;100.00;100679.00;4383917;32;20579;-77
2021/07/15 05:08:51;;;;;;;5.10;4.90;;;;;;;15.59;100.00;100613.66;4377346;32;20077;-78
2021/07/15 05:11:19;;;;;;;5.10;4.90;;;;;;;16.26;100.00;100711.00;4397820;32;20074;-77
2021/07/15 05:13:45;;;;;;;4.90;4.70;;;;;;;16.48;100.00;100708.41;4386725;32;20080;-77
2021/07/15 05:16:11;;;;;;;5.00;4.80;;;;;;;17.21;100.00;100718.69;4362642;32;20077;-77
2021/07/15 05:18:37;;;;;;;4.95;4.75;;;;;;;13.79;100.00;100215.72;4381047;32;20172;-78
2021/07/15 05:21:02;;;;;;;4.93;4.72;;;;;;;17.48;100.00;100732.41;4373759;32;20077;-78
2021/07/15 05:23:27;;;;;;;5.12;4.93;;;;;;;16.60;100.00;100680.13;4371336;32;20912;-77
2021/07/15 05:25:54;;;;;;;5.20;5.00;;;;;;;17.15;100.00;100723.50;4383526;32;20449;-78
2021/07/15 05:28:20;;;;;;;5.18;4.97;;;;;;;17.37;100.00;100745.66;4374079;32;20061;-78
2021/07/15 05:30:45;;;;;;;5.20;5.00;;;;;;;16.27;100.00;100540.56;4369046;32;20088;-78
2021/07/15 05:33:10;;;;;;;5.70;5.40;;;;;;;17.33;100.00;100710.59;4374791;32;20114;-77
2021/07/15 05:35:36;;;;;;;5.20;5.00;;;;;;;17.24;100.00;100678.66;4374381;32;20070;-78
2021/07/15 05:38:04;;;;;;;5.62;5.32;;;;;;;17.45;100.00;100718.53;4379034;32;20422;-78
2021/07/15 05:40:29;;;;;;;5.82;5.53;;;;;;;17.30;99.72;100712.66;4382804;32;20089;-78
2021/07/15 05:42:54;;;;;;;5.03;4.82;;;;;;;16.74;99.29;100639.28;4386229;32;20168;-78
2021/07/15 05:45:20;;;;;;;5.18;4.97;;;;;;;17.09;98.62;100744.38;4385725;32;20704;-78
2021/07/15 05:47:45;;;;;;;5.20;5.00;;;;;;;15.87;98.07;100584.19;4379479;32;20343;-78
2021/07/15 05:50:11;;;;;;;5.30;5.10;;;;;;;17.02;98.44;100765.22;4382681;32;20065;-77
2021/07/15 05:52:36;;;;;;;5.78;5.47;;;;;;;16.20;98.77;100621.44;4359858;32;20346;-77
2021/07/15 05:55:02;;;;;;;5.10;4.90;;;;;;;16.40;99.69;100662.25;4383442;32;20097;-77
2021/07/15 05:57:27;;;;;;;5.35;5.15;;;;;;;15.35;99.02;100506.09;4381362;32;20212;-78
2021/07/15 05:59:53;;;;;;;4.97;4.78;;;;;;;16.68;99.70;100698.91;4374753;32;20511;-78
2021/07/15 06:02:19;;;;;;;4.97;4.78;;;;;;;16.82;99.73;100715.56;4383743;32;20338;-77
2021/07/15 06:04:44;;;;;;;5.15;4.95;;;;;;;16.34;99.22;100607.97;4372275;32;20066;-78
2021/07/15 06:07:10;;;;;;;5.40;5.20;;;;;;;17.18;98.64;100756.91;4374711;32;20148;-78
2021/07/15 06:09:35;;;;;;;5.97;5.68;;;;;;;17.31;98.44;100796.56;4386175;32;20152;-77
2021/07/15 06:12:00;;;;;;;5.22;4.97;;;;;;;17.43;99.18;100784.12;4381084;32;20058;-79
2021/07/15 06:14:26;;;;;;;5.43;5.18;;;;;;;17.37;99.32;100740.38;4367803;32;20678;-78
2021/07/15 06:16:51;;;;;;;5.40;5.15;;;;;;;17.06;98.40;100680.97;4377367;32;20085;-78
2021/07/15 06:19:16;;;;;;;5.32;5.03;;;;;;;17.62;97.70;100783.50;4367973;32;20650;-78
2021/07/15 06:21:42;;;;;;;5.20;5.00;;;;;;;17.04;96.31;100686.41;4401932;32;20097;-78
2021/07/15 06:24:09;;;;;;;5.50;5.20;;;;;;;17.54;95.67;100792.94;4361910;32;20079;-78
2021/07/15 06:26:34;;;;;;;5.18;4.97;;;;;;;17.41;96.07;100759.53;4392673;32;20088;-78
2021/07/15 06:28:59;;;;;;;5.43;5.22;;;;;;;17.61;96.15;100787.13;4373320;32;20070;-77
2021/07/15 06:31:26;;;;;;;5.65;5.35;;;;;;;17.30;96.94;100717.97;4371355;32;20598;-78
2021/07/15 06:33:51;;;;;;;5.95;5.65;;;;;;;17.63;96.64;100780.72;4380529;32;20093;-77
2021/07/15 06:36:16;;;;;;;5.50;5.20;;;;;;;17.38;96.21;100720.84;4366740;32;20065;-77
2021/07/15 06:38:42;;;;;;;6.47;5.85;;;;;;;17.61;94.93;100750.81;4374901;32;20104;-79
2021/07/15 06:41:08;;;;;;;6.28;5.87;;;;;;;17.47;94.75;100735.16;4378532;32;20110;-78
2021/07/15 06:43:34;;;;;;;5.20;4.90;;;;;;;17.02;95.48;100659.19;4373095;32;20066;-77
2021/07/15 06:46:02;;;;;;;5.75;5.45;;;;;;;17.59;94.81;100734.16;4382493;32;20065;-77
2021/07/15 06:48:28;;;;;;;5.93;5.47;;;;;;;17.82;95.60;100742.94;4380965;32;20094;-78
2021/07/15 06:50:53;;;;;;;5.22;5.03;;;;;;;18.54;94.74;100819.31;4381652;32;20575;-78
2021/07/15 06:53:19;;;;;;;5.57;5.30;;;;;;;18.58;94.43;100787.97;4397483;32;20038;-78
2021/07/15 06:55:44;;;;;;;5.40;5.20;;;;;;;18.97;93.10;100822.84;4374847;32;20085;-78
2021/07/15 06:58:10;;;;;;;6.32;5.93;;;;;;;19.22;92.59;100815.38;4394050;32;20085;-79
2021/07/15 07:00:35;;;;;;;6.82;6.43;;;;;;;19.28;91.98;100799.75;4366233;32;20148;-78
2021/07/15 07:03:01;;;;;;;6.47;6.07;;;;;;;19.34;90.21;100824.97;4385859;32;20204;-77
2021/07/15 07:05:26;;;;;;;6.28;5.87;;;;;;;18.22;88.54;100710.44;4369480;32;20065;-77
2021/07/15 07:07:52;;;;;;;5.93;5.50;;;;;;;18.83;88.79;100821.34;4373321;32;20152;-77
2021/07/15 07:10:18;;;;;;;7.20;6.70;;;;;;;18.97;89.91;100806.87;4377163;32;20685;-77
2021/07/15 07:12:43;;;;;;;5.80;5.50;;;;;;;19.13;89.26;100838.31;4380609;32;20065;-76
2021/07/15 07:15:11;;;;;;;5.15;4.95;;;;;;;18.97;88.48;100800.72;4373121;32;20084;-77
2021/07/15 07:17:36;;;;;;;5.95;5.60;;;;;;;19.20;89.27;100834.13;4368695;32;20546;-76
2021/07/15 07:20:03;;;;;;;5.25;4.97;;;;;;;18.97;89.17;100776.78;4377716;32;20093;-76
2021/07/15 07:22:28;;;;;;;6.62;6.22;;;;;;;18.46;88.66;100677.41;4370492;32;20548;-76
2021/07/15 07:24:54;;;;;;;6.03;5.72;;;;;;;19.54;88.36;100817.88;4377503;32;20139;-76
2021/07/15 07:27:19;;;;;;;5.57;5.28;;;;;;;19.68;87.43;100844.13;4370049;32;20560;-76
2021/07/15 07:29:44;;;;;;;5.82;5.53;;;;;;;19.76;87.28;100843.50;4381601;32;20277;-76
2021/07/15 07:32:10;;;;;;;5.45;5.25;;;;;;;19.77;86.64;100845.19;4367753;32;20077;-78
2021/07/15 07:34:35;;;;;;;5.62;5.32;;;;;;;18.60;85.08;100703.66;4366639;32;20500;-78
2021/07/15 07:37:01;;;;;;;6.20;5.80;;;;;;;18.58;85.30;100724.19;4371463;32;20075;-77
2021/07/15 07:39:26;;;;;;;5.70;5.40;;;;;;;19.72;86.26;100856.25;4381893;32;20074;-77
2021/07/15 07:41:52;;;;;;;6.10;5.78;;;;;;;19.78;86.19;100843.34;4376355;32;20486;-77
2021/07/15 07:44:17;;;;;;;6.10;5.80;;;;;;;19.30;84.35;100749.91;4370132;32;20116;-76
2021/07/15 07:46:42;;;;;;;6.20;5.80;;;;;;;19.82;83.87;100856.25;4376522;32;20089;-76
2021/07/15 07:49:08;;;;;;;5.95;5.65;;;;;;;19.93;83.38;100860.66;4383270;32;20071;-77
2021/07/15 07:51:33;;;;;;;5.50;5.30;;;;;;;20.03;82.99;100832.19;4367957;32;20074;-76
2021/07/15 07:53:59;;;;;;;6.07;5.72;;;;;;;20.29;83.48;100848.50;4371709;32;20090;-77
2021/07/15 07:56:24;;;;;;;5.62;5.35;;;;;;;20.30;80.74;100852.00;4350860;32;20073;-76
2021/07/15 07:58:49;;;;;;;5.97;5.68;;;;;;;20.23;80.63;100827.72;4374965;32;20186;-77
2021/07/15 08:01:16;;;;;;;5.40;5.20;;;;;;;19.23;78.39;100708.84;4375947;32;20473;-76
2021/07/15 08:03:43;;;;;;;5.47;5.18;;;;;;;20.52;78.80;100837.53;4366420;32;20119;-77
2021/07/15 08:06:09;;;;;;;5.30;5.10;;;;;;;20.48;77.01;100762.31;4386997;32;20074;-76
2021/07/15 08:08:36;;;;;;;5.95;5.55;;;;;;;21.18;75.32;100846.56;4365701;32;20093;-77
2021/07/15 08:11:02;;;;;;;5.78;5.47;;;;;;;20.74;75.51;100744.91;4380595;32;20085;-76
2021/07/15 08:13:27;;;;;;;6.40;5.90;;;;;;;21.62;74.81;100838.84;4393156;32;20191;-77
2021/07/15 08:15:52;;;;;;;5.70;5.40;;;;;;;21.54;74.87;100746.09;4372279;32;20093;-77
2021/07/15 08:18:18;;;;;;;5.82;5.43;;;;;;;22.46;72.99;100845.75;4372396;32;20069;-77
2021/07/15 08:20:44;;;;;;;6.32;6.00;;;;;;;22.41;70.32;100799.91;4377256;32;20066;-76
2021/07/15 08:23:09;;;;;;;5.87;5.57;;;;;;;22.41;69.93;100832.84;4370750;32;20788;-77
2021/07/15 08:25:34;;;;;;;5.90;5.60;;;;;;;21.70;71.15;100812.22;4388538;32;20120;-76
2021/07/15 08:28:00;;;;;;;6.22;5.93;;;;;;;21.32;72.79;100827.41;4381757;32;20659;-76
2021/07/15 08:30:28;;;;;;;5.95;5.43;;;;;;;21.49;72.12;100812.50;4384594;32;20085;-77
2021/07/15 08:32:53;;;;;;;6.45;6.05;;;;;;;21.89;71.79;100836.16;4359059;32;20084;-77
2021/07/15 08:35:18;;;;;;;6.10;5.70;;;;;;;21.60;70.31;100814.13;4384846;32;20058;-77
2021/07/15 08:37:44;;;;;;;5.75;5.32;;;;;;;21.22;73.14;100778.56;4374577;32;20121;-77
2021/07/15 08:40:09;;;;;;;6.50;6.00;;;;;;;20.64;73.78;100750.25;4361104;32;20579;-77
2021/07/15 08:42:37;;;;;;;5.80;5.40;;;;;;;21.44;74.11;100826.25;4379076;32;20109;-77
2021/07/15 08:45:04;;;;;;;5.72;5.43;;;;;;;20.76;72.50;100753.59;4392834;32;20101;-77
2021/07/15 08:47:30;;;;;;;6.00;5.55;;;;;;;21.97;72.30;100806.00;4377385;32;20092;-77
2021/07/15 08:49:55;;;;;;;5.25;5.00;;;;;;;21.56;70.00;100665.84;4366983;32;20077;-76
2021/07/15 08:52:21;;;;;;;5.95;5.65;;;;;;;22.24;70.30;100711.53;4368117;32;20548;-77
2021/07/15 08:55:16;;;;;;;5.97;5.68;;;;;;;22.78;69.54;100823.75;4368936;32;20335;-77
2021/07/15 08:57:41;;;;;;;5.95;5.35;;;;;;;20.74;72.55;100648.91;4384214;32;20098;-77
2021/07/15 09:00:12;;;;;;;5.97;5.68;;;;;;;21.44;71.97;100793.41;4356082;32;20087;-78
2021/07/15 09:02:37;;;;;;;5.75;5.45;;;;;;;21.86;72.24;100737.59;4365023;32;20097;-77
2021/07/15 09:05:07;;;;;;;5.72;5.43;;;;;;;22.81;70.68;100830.63;4369299;32;20589;-77
2021/07/15 09:07:32;;;;;;;5.80;5.50;;;;;;;20.58;69.96;100462.84;4375965;32;20400;-77
2021/07/15 09:09:57;;;;;;;6.68;6.28;;;;;;;22.88;69.81;100848.59;4371755;32;20069;-77
2021/07/15 09:12:23;;;;;;;5.95;5.65;;;;;;;21.78;70.92;100855.06;4354743;32;20521;-77
2021/07/15 09:14:54;;;;;;;5.70;5.40;;;;;;;21.90;70.85;100861.88;4358185;32;20062;-77
2021/07/15 09:17:30;;;;;;;6.32;5.93;;;;;;;22.10;68.25;100809.13;4379707;32;20070;-77
2021/07/15 09:19:55;;;;;;;5.80;5.50;;;;;;;23.03;69.18;100856.06;4370960;32;20073;-76
2021/07/15 09:22:21;;;;;;;6.10;5.80;;;;;;;23.18;66.66;100840.28;4376306;32;20701;-77
2021/07/15 09:24:46;;;;;;;6.00;5.60;;;;;;;23.04;64.43;100863.13;4389291;32;20096;-79
2021/07/15 09:27:15;;;;;;;5.40;5.20;;;;;;;23.04;65.94;100865.78;4378501;32;20644;-77
2021/07/15 09:29:41;;;;;;;5.78;5.47;;;;;;;23.31;63.85;100864.75;4386722;32;20069;-76
2021/07/15 09:32:07;;;;;;;5.95;5.65;;;;;;;22.36;67.43;100815.59;4370267;32;20575;-76
2021/07/15 09:34:34;;;;;;;5.60;5.40;;;;;;;22.86;65.61;100766.78;4365929;32;20713;-77
2021/07/15 09:37:16;;;;;;;5.60;5.30;;;;;;;23.52;65.51;100868.91;4377564;32;20085;-78
2021/07/15 09:39:46;;;;;;;5.50;5.30;;;;;;;23.89;65.27;100857.84;4386587;32;20093;-77
2021/07/15 09:42:15;;;;;;;5.95;5.65;;;;;;;23.16;63.79;100823.53;4380045;32;20065;-79
2021/07/15 09:44:43;;;;;;;6.40;6.07;;;;;;;23.13;66.03;100866.66;4369305;32;20636;-77
2021/07/15 09:47:28;;;;;;;5.90;5.40;;;;;;;22.94;64.78;100867.69;4371858;32;20354;-76
2021/07/15 09:49:54;;;;;;;5.95;5.65;;;;;;;22.86;67.08;100877.34;4369246;32;20088;-76
2021/07/15 09:52:39;;;;;;;7.50;7.10;;;;;;;22.61;66.46;100879.00;4373532;32;20078;-76
2021/07/15 09:55:24;;;;;;;5.82;5.53;;;;;;;22.25;67.06;100859.41;4388619;32;20606;-76
2021/07/15 09:58:06;;;;;;;6.15;5.85;;;;;;;22.25;67.38;100886.16;4352515;32;20069;-76
2021/07/15 10:00:44;;;;;;;5.95;5.65;;;;;;;21.76;67.71;100821.47;4375847;32;20576;-76
2021/07/15 10:03:13;;;;;;;5.97;5.68;;;;;;;21.82;67.74;100811.00;4364699;32;20553;-76
2021/07/15 10:05:52;;;;;;;7.03;6.53;;;;;;;22.58;68.32;100862.41;4340386;32;20057;-77
2021/07/15 10:08:23;;;;;;;5.90;5.60;;;;;;;22.99;68.96;100893.00;4377191;32;20128;-76
2021/07/15 10:10:49;;;;;;;5.85;5.55;;;;;;;23.03;67.25;100867.63;4361906;32;20220;-75
2021/07/15 10:13:19;;;;;;;6.37;6.03;;;;;;;23.28;66.87;100870.44;4354657;32;20071;-76
2021/07/15 10:15:45;;;;;;;5.75;5.45;;;;;;;23.02;64.75;100873.12;4355428;32;20074;-75
2021/07/15 10:18:10;;;;;;;5.82;5.53;;;;;;;23.58;65.35;100892.38;4355087;32;20674;-76
2021/07/15 10:20:36;;;;;;;5.93;5.60;;;;;;;23.63;64.06;100880.19;4360635;32;20393;-76
2021/07/15 10:23:01;;;;;;;6.03;5.62;;;;;;;23.03;65.76;100882.84;4373160;32;20082;-76
2021/07/15 10:25:30;;;;;;;5.90;5.60;;;;;;;23.72;65.11;100843.53;4359570;32;20118;-75
2021/07/15 10:27:55;;;;;;;6.57;6.28;;;;;;;24.02;60.00;100892.22;4370531;32;20117;-77
2021/07/15 10:30:21;;;;;;;6.20;5.90;;;;;;;23.74;60.82;100804.00;4352782;32;20082;-78
2021/07/15 10:32:46;;;;;;;6.70;6.30;;;;;;;24.38;61.54;100878.56;4379345;32;20565;-76
2021/07/15 10:35:12;;;;;;;6.90;6.50;;;;;;;23.95;60.87;100894.72;4345730;32;20082;-76
2021/07/15 10:37:39;;;;;;;6.43;6.05;;;;;;;23.29;63.52;100856.91;4353724;32;20212;-77
2021/07/15 10:40:07;;;;;;;6.03;5.60;;;;;;;23.80;63.74;100896.34;4380110;32;20082;-76
2021/07/15 10:42:33;;;;;;;6.30;5.97;;;;;;;23.68;64.85;100839.50;4356198;32;20707;-76
2021/07/15 10:44:58;;;;;;;5.90;5.60;;;;;;;24.04;63.16;100887.56;4380106;32;20074;-77
2021/07/15 10:47:26;;;;;;;6.20;5.90;;;;;;;23.41;64.74;100746.81;4368926;32;20094;-76
2021/07/15 10:49:52;;;;;;;7.22;6.10;;;;;;;24.27;60.96;100890.44;4361338;32;20073;-77
2021/07/15 10:52:18;;;;;;;6.22;5.93;;;;;;;23.04;61.04;100756.03;4366755;32;20539;-77
2021/07/15 10:54:43;;;;;;;6.53;6.12;;;;;;;24.15;61.31;100886.38;4383543;32;20082;-77
2021/07/15 10:57:12;;;;;;;6.20;5.90;;;;;;;23.83;62.72;100858.50;4381151;32;20080;-76
2021/07/15 10:59:37;;;;;;;6.28;5.97;;;;;;;23.82;62.52;100889.81;4372271;32;20143;-76
2021/07/15 11:02:03;;;;;;;5.72;5.45;;;;;;;23.48;62.87;100916.59;4368023;32;20554;-77
2021/07/15 11:04:32;;;;;;;6.00;5.70;;;;;;;23.46;62.05;100907.87;4356395;32;20642;-77
2021/07/15 11:07:01;;;;;;;5.95;5.65;;;;;;;23.36;64.38;100894.59;4369920;32;20525;-77
2021/07/15 11:09:30;;;;;;;6.00;5.70;;;;;;;23.20;66.44;100898.00;4357266;32;20061;-76
2021/07/15 11:11:57;;;;;;;5.90;5.60;;;;;;;22.82;63.97;100886.66;4356643;32;20063;-75
2021/07/15 11:14:41;;;;;;;6.12;5.50;;;;;;;23.00;67.13;100909.91;4365048;32;20082;-76
2021/07/15 11:17:25;;;;;;;5.78;5.47;;;;;;;22.27;67.30;100791.44;4361450;32;20069;-76
2021/07/15 11:19:57;;;;;;;6.00;5.70;;;;;;;22.73;65.26;100914.34;4366557;32;20145;-76
2021/07/15 11:22:39;;;;;;;6.07;5.77;;;;;;;22.69;64.73;100911.16;4366325;32;20602;-76
2021/07/15 11:25:26;;;;;;;5.78;5.47;;;;;;;22.61;65.34;100918.25;4375588;32;20069;-76